Time;durP1;ratioP1;P1;durP2;ratioP2;P2;SDS_P1;SDS_P2;PMS_P1;PMS_P2;Temp;Humidity;BMP_temperature;BMP_pressure;BME280_temperature;BME280_humidity;BME280_pressure;Samples;Min_cycle;Max_cycle;Signal;HPM_P1;HPM_P2
2022/07/24 00:01:21;;;;;;;;;;;;;;;20.01;60.37;101826.19;5068605;28;19920;-61
2022/07/24 00:03:46;;;;;;;;;;;;;;;19.98;60.58;101828.44;5060343;28;19927;-61
2022/07/24 00:06:12;;;;;;;;;;;;;;;19.96;60.61;101827.78;5063475;28;19924;-61
2022/07/24 00:08:38;;;;;;;;;;;;;;;19.95;60.84;101828.78;5062809;28;19931;-61
2022/07/24 00:11:03;;;;;;;;;;;;;;;19.94;60.76;101827.97;5064797;28;19920;-61
2022/07/24 00:13:28;;;;;;;;;;;;;;;19.93;60.88;101828.19;5070166;28;19983;-61
2022/07/24 00:15:54;;;;;;;;;;;;;;;19.89;62.47;101825.06;5061623;28;19921;-61
2022/07/24 00:18:19;;;;;;;;;;;;;;;19.81;61.59;101817.13;5057809;28;20497;-61
2022/07/24 00:20:45;;;;;;;;;;;;;;;19.73;61.36;101818.97;5063289;28;20337;-61
2022/07/24 00:23:11;;;;;;;;;;;;;;;19.69;61.51;101812.31;5065732;28;20248;-61
2022/07/24 00:25:36;;;;;;;;;;;;;;;19.66;61.70;101810.03;5062482;28;19921;-61
2022/07/24 00:28:01;;;;;;;;;;;;;;;19.66;61.58;101811.88;5057529;28;19921;-61
2022/07/24 00:30:26;;;;;;;;;;;;;;;19.64;61.68;101806.72;5053621;28;19921;-60
2022/07/24 00:32:51;;;;;;;;;;;;;;;19.63;61.74;101813.09;5058166;28;19943;-60
2022/07/24 00:35:17;;;;;;;;;;;;;;;19.61;61.67;101809.78;5063062;28;20010;-60
2022/07/24 00:37:46;;;;;;;;;;;;;;;19.62;61.63;101814.13;5064462;28;21242;-61
2022/07/24 00:40:11;;;;;;;;;;;;;;;19.62;61.58;101816.81;5056460;28;19964;-60
2022/07/24 00:42:37;;;;;;;;;;;;;;;19.61;61.47;101820.56;5068706;28;19954;-61
2022/07/24 00:45:02;;;;;;;;;;;;;;;19.59;61.44;101822.63;5063446;28;20359;-60
2022/07/24 00:47:27;;;;;;;;;;;;;;;19.59;61.18;101825.31;5061288;28;19927;-61
2022/07/24 00:49:52;;;;;;;;;;;;;;;19.58;61.28;101816.41;5061721;28;19974;-61
2022/07/24 00:52:18;;;;;;;;;;;;;;;19.59;61.31;101814.56;5062585;28;20024;-61
2022/07/24 00:54:44;;;;;;;;;;;;;;;19.60;61.50;101813.53;5064160;28;19939;-61
2022/07/24 00:57:09;;;;;;;;;;;;;;;19.61;61.32;101809.78;5066216;28;19928;-60
2022/07/24 00:59:34;;;;;;;;;;;;;;;19.61;61.41;101810.63;5070410;28;19924;-61
2022/07/24 01:02:00;;;;;;;;;;;;;;;19.62;61.22;101811.44;5063230;28;19975;-60
2022/07/24 01:04:25;;;;;;;;;;;;;;;19.61;61.08;101813.31;5062965;28;20031;-60
2022/07/24 01:06:50;;;;;;;;;;;;;;;19.60;61.13;101813.53;5069226;28;19973;-61
2022/07/24 01:09:16;;;;;;;;;;;;;;;19.61;61.19;101809.78;5064449;28;19920;-61
2022/07/24 01:11:42;;;;;;;;;;;;;;;19.60;61.21;101802.75;5070475;28;19920;-61
2022/07/24 01:14:08;;;;;;;;;;;;;;;19.59;61.25;101801.09;5069359;28;19921;-61
2022/07/24 01:16:34;;;;;;;;;;;;;;;19.57;61.32;101803.13;5063691;28;19921;-60
2022/07/24 01:18:59;;;;;;;;;;;;;;;19.56;61.38;101801.47;5065825;28;20377;-60
2022/07/24 01:21:25;;;;;;;;;;;;;;;19.56;61.40;101796.94;5070321;28;20016;-60
2022/07/24 01:23:50;;;;;;;;;;;;;;;19.56;61.25;101796.09;5056730;28;19929;-60
2022/07/24 01:26:16;;;;;;;;;;;;;;;19.58;61.28;101802.94;5063977;28;20413;-60
2022/07/24 01:28:42;;;;;;;;;;;;;;;19.54;61.56;101806.25;5072190;28;19931;-60
2022/07/24 01:31:07;;;;;;;;;;;;;;;19.44;61.94;101802.03;5070137;28;19921;-60
2022/07/24 01:33:32;;;;;;;;;;;;;;;19.32;62.39;101806.31;5071782;28;20296;-61
2022/07/24 01:35:58;;;;;;;;;;;;;;;19.29;62.30;101806.72;5070469;28;19931;-61
2022/07/24 01:38:23;;;;;;;;;;;;;;;19.12;62.46;101801.63;5069203;28;19921;-61
2022/07/24 01:40:48;;;;;;;;;;;;;;;19.05;62.76;101798.06;5067946;28;19920;-61
2022/07/24 01:43:13;;;;;;;;;;;;;;;19.00;63.14;101809.34;5059659;28;20375;-61
2022/07/24 01:45:38;;;;;;;;;;;;;;;18.87;63.36;101804.69;5057558;28;19921;-61
2022/07/24 01:48:04;;;;;;;;;;;;;;;18.86;63.35;101797.66;5064880;28;20013;-60
2022/07/24 01:50:29;;;;;;;;;;;;;;;18.77;63.71;101796.97;5058778;28;20024;-60
2022/07/24 01:52:55;;;;;;;;;;;;;;;18.76;63.48;101791.78;5059090;28;20394;-61
2022/07/24 01:55:21;;;;;;;;;;;;;;;18.79;63.64;101802.13;5063114;28;20006;-61
2022/07/24 01:57:47;;;;;;;;;;;;;;;18.74;63.42;101793.84;5070123;28;20019;-60
2022/07/24 02:00:12;;;;;;;;;;;;;;;18.73;63.80;101794.84;5061844;28;19927;-60
2022/07/24 02:02:38;;;;;;;;;;;;;;;18.71;63.72;101799.59;5055523;28;19925;-60
2022/07/24 02:05:03;;;;;;;;;;;;;;;18.71;63.54;101784.31;5067960;28;19921;-60
2022/07/24 02:07:29;;;;;;;;;;;;;;;18.72;63.44;101796.72;5067071;28;19920;-60
2022/07/24 02:09:54;;;;;;;;;;;;;;;18.65;63.90;101791.25;5070462;28;20306;-60
2022/07/24 02:12:19;;;;;;;;;;;;;;;18.58;64.00;101790.38;5061566;28;20007;-60
2022/07/24 02:14:44;;;;;;;;;;;;;;;18.54;63.79;101798.00;5068797;28;19928;-60
2022/07/24 02:17:10;;;;;;;;;;;;;;;18.51;64.45;101792.16;5065545;28;20272;-61
2022/07/24 02:19:35;;;;;;;;;;;;;;;18.50;64.35;101794.00;5067679;28;19931;-60
2022/07/24 02:22:00;;;;;;;;;;;;;;;18.51;64.40;101789.50;5065904;28;19940;-60
2022/07/24 02:24:25;;;;;;;;;;;;;;;18.50;63.99;101793.19;5058659;28;20367;-60
2022/07/24 02:26:51;;;;;;;;;;;;;;;18.48;64.21;101785.31;5055595;28;20011;-60
2022/07/24 02:29:16;;;;;;;;;;;;;;;18.46;64.50;101782.00;5062701;28;19924;-61
2022/07/24 02:31:41;;;;;;;;;;;;;;;18.46;64.61;101786.53;5067019;28;20319;-60
2022/07/24 02:34:06;;;;;;;;;;;;;;;18.45;64.43;101784.88;5070322;28;19920;-61
2022/07/24 02:36:31;;;;;;;;;;;;;;;18.47;64.25;101789.03;5064967;28;21848;-60
2022/07/24 02:38:56;;;;;;;;;;;;;;;18.46;64.46;101778.47;5060917;28;19929;-60
2022/07/24 02:41:22;;;;;;;;;;;;;;;18.44;64.48;101791.28;5069647;28;19969;-60
2022/07/24 02:43:47;;;;;;;;;;;;;;;18.37;65.03;101793.88;5065569;28;19920;-60
2022/07/24 02:46:12;;;;;;;;;;;;;;;18.26;65.46;101796.03;5054299;28;20062;-60
2022/07/24 02:48:37;;;;;;;;;;;;;;;18.14;65.54;101800.25;5070606;28;19917;-60
2022/07/24 02:51:03;;;;;;;;;;;;;;;18.02;65.96;101807.94;5056727;28;19921;-60
2022/07/24 02:53:28;;;;;;;;;;;;;;;17.91;65.91;101800.34;5061161;28;19920;-60
2022/07/24 02:55:53;;;;;;;;;;;;;;;17.91;65.80;101794.97;5063084;28;19927;-60
2022/07/24 02:58:19;;;;;;;;;;;;;;;17.93;66.07;101800.97;5061392;28;20511;-60
2022/07/24 03:00:44;;;;;;;;;;;;;;;17.90;65.89;101794.13;5062844;28;19928;-60
2022/07/24 03:03:09;;;;;;;;;;;;;;;17.91;65.84;101794.97;5059383;28;19937;-60
2022/07/24 03:05:34;;;;;;;;;;;;;;;17.92;66.02;101793.97;5063870;28;19931;-60
2022/07/24 03:08:00;;;;;;;;;;;;;;;17.95;65.93;101790.91;5066342;28;19916;-60
2022/07/24 03:10:25;;;;;;;;;;;;;;;17.97;66.00;101791.53;5057908;28;20362;-60
2022/07/24 03:12:50;;;;;;;;;;;;;;;17.97;65.90;101788.88;5056224;28;19921;-60
2022/07/24 03:15:16;;;;;;;;;;;;;;;17.98;65.65;101782.47;5064410;28;19977;-60
2022/07/24 03:17:49;;;;;;;;;;;;;;;17.99;65.74;101787.66;5059385;28;19978;-60
2022/07/24 03:20:14;;;;;;;;;;;;;;;17.99;66.13;101789.50;5056248;28;19931;-60
2022/07/24 03:22:39;;;;;;;;;;;;;;;17.96;66.22;101788.03;5054291;28;20015;-60
2022/07/24 03:25:04;;;;;;;;;;;;;;;17.97;66.25;101788.88;5062420;28;20338;-60
2022/07/24 03:27:30;;;;;;;;;;;;;;;17.96;66.03;101785.34;5065912;28;20298;-60
2022/07/24 03:29:55;;;;;;;;;;;;;;;17.97;66.42;101788.88;5065040;28;19928;-61
2022/07/24 03:32:20;;;;;;;;;;;;;;;17.97;66.20;101788.88;5054526;28;19948;-61
2022/07/24 03:34:45;;;;;;;;;;;;;;;17.95;66.06;101783.69;5064882;28;20011;-60
2022/07/24 03:37:10;;;;;;;;;;;;;;;17.91;66.42;101789.63;5069202;28;19928;-61
2022/07/24 03:39:36;;;;;;;;;;;;;;;17.88;66.49;101786.25;5070851;28;19932;-61
2022/07/24 03:42:01;;;;;;;;;;;;;;;17.87;66.81;101795.34;5067245;28;19996;-61
2022/07/24 03:44:26;;;;;;;;;;;;;;;17.82;66.73;101792.38;5067955;28;19921;-61
2022/07/24 03:46:51;;;;;;;;;;;;;;;17.81;66.48;101790.72;5071447;28;19916;-61
2022/07/24 03:49:17;;;;;;;;;;;;;;;17.79;66.52;101776.69;5061465;28;19943;-61
2022/07/24 03:51:42;;;;;;;;;;;;;;;17.77;67.27;101778.72;5059388;28;19920;-61
2022/07/24 03:54:07;;;;;;;;;;;;;;;17.74;66.46;101776.41;5057646;28;20007;-61
2022/07/24 03:56:33;;;;;;;;;;;;;;;17.70;66.77;101778.63;5058408;28;19978;-61
2022/07/24 03:58:58;;;;;;;;;;;;;;;17.71;67.34;101779.47;5070591;28;20370;-61
2022/07/24 04:01:23;;;;;;;;;;;;;;;17.67;67.61;101775.47;5058522;28;19925;-60
2022/07/24 04:03:48;;;;;;;;;;;;;;;17.66;67.18;101784.56;5058222;28;19955;-61
2022/07/24 04:06:14;;;;;;;;;;;;;;;17.63;67.16;101771.50;5066919;28;19974;-61
2022/07/24 04:08:39;;;;;;;;;;;;;;;17.61;67.28;101780.56;5058734;28;19929;-61
2022/07/24 04:11:05;;;;;;;;;;;;;;;17.60;67.02;101775.38;5059382;28;20346;-61
2022/07/24 04:13:30;;;;;;;;;;;;;;;17.58;67.00;101772.88;5069012;28;19935;-61
2022/07/24 04:15:56;;;;;;;;;;;;;;;17.53;67.54;101772.63;5067557;28;20019;-61
2022/07/24 04:18:21;;;;;;;;;;;;;;;17.50;67.91;101772.97;5070012;28;19943;-61
2022/07/24 04:20:47;;;;;;;;;;;;;;;17.49;68.39;101768.66;5066205;28;19969;-61
2022/07/24 04:23:12;;;;;;;;;;;;;;;17.48;67.57;101775.03;5066663;28;20326;-61
2022/07/24 04:25:37;;;;;;;;;;;;;;;17.50;67.49;101789.06;5066736;28;19927;-61
2022/07/24 04:28:03;;;;;;;;;;;;;;;17.50;67.42;101783.72;5075421;28;19951;-61
2022/07/24 04:30:28;;;;;;;;;;;;;;;17.52;67.54;101791.56;5057045;28;20008;-61
2022/07/24 04:32:53;;;;;;;;;;;;;;;17.53;67.40;101788.72;5068863;28;19921;-60
2022/07/24 04:35:18;;;;;;;;;;;;;;;17.52;67.69;101787.03;5061887;28;19925;-61
2022/07/24 04:37:44;;;;;;;;;;;;;;;17.52;68.10;101784.34;5064210;28;20415;-61
2022/07/24 04:40:10;;;;;;;;;;;;;;;17.53;68.38;101791.41;5065004;28;19928;-61
2022/07/24 04:42:35;;;;;;;;;;;;;;;17.55;67.60;101793.88;5062160;28;19925;-61
2022/07/24 04:45:00;;;;;;;;;;;;;;;17.51;68.12;101800.66;5059026;28;20484;-61
2022/07/24 04:47:25;;;;;;;;;;;;;;;17.51;68.04;101790.72;5066585;28;19925;-61
2022/07/24 04:49:51;;;;;;;;;;;;;;;17.51;67.66;101788.06;5068824;28;20314;-61
2022/07/24 04:52:16;;;;;;;;;;;;;;;17.51;68.06;101796.09;5075330;28;19916;-61
2022/07/24 04:54:41;;;;;;;;;;;;;;;17.51;68.11;101796.09;5072954;28;20302;-61
2022/07/24 04:57:06;;;;;;;;;;;;;;;17.51;68.60;101790.72;5061585;28;20054;-61
2022/07/24 04:59:31;;;;;;;;;;;;;;;17.46;68.87;101793.13;5061913;28;19926;-61
2022/07/24 05:01:56;;;;;;;;;;;;;;;17.46;69.28;101787.75;5072756;28;19920;-61
2022/07/24 05:04:22;;;;;;;;;;;;;;;17.47;68.84;101790.28;5066149;28;19920;-61
2022/07/24 05:06:47;;;;;;;;;;;;;;;17.50;69.75;101785.56;5073995;28;19920;-61
2022/07/24 05:09:13;;;;;;;;;;;;;;;17.51;69.77;101780.00;5066011;28;19931;-61
2022/07/24 05:11:38;;;;;;;;;;;;;;;17.54;69.55;101778.81;5059323;28;19927;-61
2022/07/24 05:14:03;;;;;;;;;;;;;;;17.58;69.05;101785.47;5068841;28;20367;-61
2022/07/24 05:16:28;;;;;;;;;;;;;;;17.60;70.71;101786.97;5066873;28;19927;-61
2022/07/24 05:18:53;;;;;;;;;;;;;;;17.60;69.31;101781.59;5061313;28;20658;-61
2022/07/24 05:21:19;;;;;;;;;;;;;;;17.64;70.30;101786.56;5063979;28;20443;-62
2022/07/24 05:23:44;;;;;;;;;;;;;;;17.66;69.13;101792.59;5069220;28;19999;-61
2022/07/24 05:26:09;;;;;;;;;;;;;;;17.68;70.58;101795.91;5061727;28;20305;-61
2022/07/24 05:28:34;;;;;;;;;;;;;;;17.72;69.50;101799.91;5070830;28;19951;-61
2022/07/24 05:30:59;;;;;;;;;;;;;;;17.73;71.25;101797.00;5062291;28;20367;-61
2022/07/24 05:33:25;;;;;;;;;;;;;;;17.77;69.76;101805.56;5059983;28;19978;-61
2022/07/24 05:35:50;;;;;;;;;;;;;;;17.75;70.87;101803.03;5068557;28;19982;-61
2022/07/24 05:38:15;;;;;;;;;;;;;;;17.77;70.25;101810.91;5072596;28;19931;-61
2022/07/24 05:40:40;;;;;;;;;;;;;;;17.78;69.90;101804.53;5065416;28;19924;-61
2022/07/24 05:43:06;;;;;;;;;;;;;;;17.81;70.94;101809.50;5059081;28;19920;-60
2022/07/24 05:45:31;;;;;;;;;;;;;;;17.84;70.61;101806.47;5063151;28;19970;-61
2022/07/24 05:47:56;;;;;;;;;;;;;;;17.88;70.38;101802.38;5065256;28;20406;-61
2022/07/24 05:50:22;;;;;;;;;;;;;;;17.90;71.60;101804.88;5072676;28;20035;-61
2022/07/24 05:52:47;;;;;;;;;;;;;;;17.94;70.19;101805.31;5068288;28;19925;-61
2022/07/24 05:55:12;;;;;;;;;;;;;;;18.01;69.63;101811.63;5067118;28;19921;-61
2022/07/24 05:57:37;;;;;;;;;;;;;;;18.08;70.09;101804.53;5055751;28;19928;-61
2022/07/24 06:00:04;;;;;;;;;;;;;;;18.13;69.72;101810.16;5064322;28;19924;-60
2022/07/24 06:02:29;;;;;;;;;;;;;;;18.22;69.89;101807.34;5065580;28;19940;-61
2022/07/24 06:04:54;;;;;;;;;;;;;;;18.27;69.66;101810.31;5062099;28;20546;-62
2022/07/24 06:07:19;;;;;;;;;;;;;;;18.37;69.95;101820.75;5060844;28;19920;-62
2022/07/24 06:09:44;;;;;;;;;;;;;;;18.41;69.90;101822.84;5073707;28;20015;-61
2022/07/24 06:12:09;;;;;;;;;;;;;;;18.51;69.83;101816.34;5070308;28;19920;-61
2022/07/24 06:14:34;;;;;;;;;;;;;;;18.57;69.87;101812.91;5068759;28;19964;-62
2022/07/24 06:17:00;;;;;;;;;;;;;;;18.65;69.21;101818.13;5058942;28;19928;-62
2022/07/24 06:19:25;;;;;;;;;;;;;;;18.76;68.94;101818.66;5065372;28;19982;-62
2022/07/24 06:21:50;;;;;;;;;;;;;;;18.87;69.02;101818.13;5056711;28;20003;-61
2022/07/24 06:24:15;;;;;;;;;;;;;;;18.82;69.09;101823.25;5067566;28;19970;-62
2022/07/24 06:26:41;;;;;;;;;;;;;;;18.89;68.87;101824.13;5066556;28;20646;-62
2022/07/24 06:29:06;;;;;;;;;;;;;;;18.95;69.31;101815.31;5072604;28;19921;-62
2022/07/24 06:31:31;;;;;;;;;;;;;;;19.02;68.69;101819.91;5064784;28;20008;-62
2022/07/24 06:33:56;;;;;;;;;;;;;;;19.13;68.26;101819.41;5068534;28;20370;-61
2022/07/24 06:36:21;;;;;;;;;;;;;;;19.13;68.23;101815.91;5069348;28;20586;-61
2022/07/24 06:38:47;;;;;;;;;;;;;;;19.21;68.18;101827.31;5056511;28;19921;-61
2022/07/24 06:41:12;;;;;;;;;;;;;;;19.23;68.01;101819.06;5072979;28;19916;-61
2022/07/24 06:43:38;;;;;;;;;;;;;;;19.30;68.01;101816.44;5066132;28;19920;-62
2022/07/24 06:46:03;;;;;;;;;;;;;;;19.37;67.96;101811.91;5067847;28;19921;-62
2022/07/24 06:48:29;;;;;;;;;;;;;;;19.53;67.38;101812.66;5065162;28;19925;-62
2022/07/24 06:50:55;;;;;;;;;;;;;;;19.53;67.39;101808.09;5061792;28;19927;-62
2022/07/24 06:53:20;;;;;;;;;;;;;;;19.60;67.33;101816.22;5064050;28;20267;-62
2022/07/24 06:55:46;;;;;;;;;;;;;;;19.68;67.23;101813.34;5058325;28;20405;-62
2022/07/24 06:58:11;;;;;;;;;;;;;;;19.78;67.07;101809.47;5057222;28;19921;-62
2022/07/24 07:00:37;;;;;;;;;;;;;;;19.83;66.81;101817.78;5061448;28;19920;-62
2022/07/24 07:03:02;;;;;;;;;;;;;;;19.88;66.60;101804.53;5070500;28;20039;-62
2022/07/24 07:05:27;;;;;;;;;;;;;;;19.97;66.43;101807.91;5062231;28;20259;-62
2022/07/24 07:07:52;;;;;;;;;;;;;;;20.05;65.17;101804.22;5071463;28;19920;-62
2022/07/24 07:10:17;;;;;;;;;;;;;;;20.11;65.29;101798.03;5071165;28;19989;-61
2022/07/24 07:12:43;;;;;;;;;;;;;;;20.20;65.38;101807.59;5070942;28;20012;-61
2022/07/24 07:15:09;;;;;;;;;;;;;;;20.26;64.82;101801.41;5057710;28;19928;-62
2022/07/24 07:17:36;;;;;;;;;;;;;;;20.33;64.61;101806.78;5063551;28;19920;-62
2022/07/24 07:20:01;;;;;;;;;;;;;;;20.43;64.57;101817.19;5070671;28;19921;-62
2022/07/24 07:22:26;;;;;;;;;;;;;;;20.54;63.87;101824.66;5071280;28;20384;-62
2022/07/24 07:24:52;;;;;;;;;;;;;;;20.64;63.52;101818.91;5061156;28;20373;-62
2022/07/24 07:27:17;;;;;;;;;;;;;;;20.68;62.79;101819.31;5058728;28;20431;-59
2022/07/24 07:29:42;;;;;;;;;;;;;;;20.79;62.31;101816.00;5069069;28;19927;-59
2022/07/24 07:32:07;;;;;;;;;;;;;;;20.79;61.97;101821.41;5064311;28;20010;-60
2022/07/24 07:34:32;;;;;;;;;;;;;;;20.86;60.73;101812.50;5066974;28;19920;-60
2022/07/24 07:36:57;;;;;;;;;;;;;;;20.91;59.35;101823.47;5068592;28;19929;-59
2022/07/24 07:39:23;;;;;;;;;;;;;;;20.95;60.07;101813.94;5064851;28;19928;-59
2022/07/24 07:41:48;;;;;;;;;;;;;;;21.06;58.29;101825.97;5068068;28;19977;-59
2022/07/24 07:44:13;;;;;;;;;;;;;;;21.10;57.45;101811.88;5062725;28;20383;-60
2022/07/24 07:46:38;;;;;;;;;;;;;;;21.08;57.13;101813.94;5061012;28;19987;-59
2022/07/24 07:49:03;;;;;;;;;;;;;;;21.19;57.06;101819.75;5067520;28;19920;-60
2022/07/24 07:51:29;;;;;;;;;;;;;;;21.24;57.30;101817.25;5068050;28;19924;-59
2022/07/24 07:53:54;;;;;;;;;;;;;;;21.33;56.23;101820.56;5061824;28;19921;-59
2022/07/24 07:56:20;;;;;;;;;;;;;;;21.42;55.81;101811.19;5059377;28;20015;-59
2022/07/24 07:58:45;;;;;;;;;;;;;;;21.44;56.05;101811.00;5057194;28;19931;-59
2022/07/24 08:01:10;;;;;;;;;;;;;;;21.56;55.06;101814.69;5058443;28;19921;-59
2022/07/24 08:03:35;;;;;;;;;;;;;;;21.62;55.42;101802.25;5065721;28;19921;-59
2022/07/24 08:06:01;;;;;;;;;;;;;;;21.83;53.26;101811.13;5066561;28;19920;-60
2022/07/24 08:08:26;;;;;;;;;;;;;;;21.85;53.66;101790.97;5071961;28;19987;-60
2022/07/24 08:10:51;;;;;;;;;;;;;;;21.89;53.73;101794.91;5067697;28;21884;-59
2022/07/24 08:13:17;;;;;;;;;;;;;;;21.94;52.38;101798.84;5068376;28;19920;-59
2022/07/24 08:15:44;;;;;;;;;;;;;;;22.04;52.77;101799.19;5069504;28;20363;-59
2022/07/24 08:18:09;;;;;;;;;;;;;;;22.10;53.03;101798.31;5063429;28;20429;-59
2022/07/24 08:20:34;;;;;;;;;;;;;;;22.20;53.14;101802.44;5064771;28;19928;-59
2022/07/24 08:22:59;;;;;;;;;;;;;;;22.32;51.78;101806.13;5066774;28;19970;-59
2022/07/24 08:25:25;;;;;;;;;;;;;;;22.42;51.50;101800.22;5064934;28;20350;-60
2022/07/24 08:27:50;;;;;;;;;;;;;;;22.44;51.80;101804.38;5057326;28;19921;-59
2022/07/24 08:30:15;;;;;;;;;;;;;;;22.51;51.52;101808.91;5069462;28;19932;-59
2022/07/24 08:32:41;;;;;;;;;;;;;;;22.52;51.10;101810.59;5062140;28;19921;-59
2022/07/24 08:35:06;;;;;;;;;;;;;;;22.57;51.63;101814.31;5068690;28;19920;-59
2022/07/24 08:37:35;;;;;;;;;;;;;;;22.68;50.75;101809.22;5060399;28;19924;-59
2022/07/24 08:40:00;;;;;;;;;;;;;;;22.71;51.31;101803.41;5066673;28;19961;-59
2022/07/24 08:42:25;;;;;;;;;;;;;;;22.82;50.67;101799.97;5054485;28;20007;-60
2022/07/24 08:44:51;;;;;;;;;;;;;;;22.86;51.08;101805.78;5065155;28;19928;-59
2022/07/24 08:47:17;;;;;;;;;;;;;;;22.96;52.35;101806.09;5059091;28;19968;-59
2022/07/24 08:49:44;;;;;;;;;;;;;;;23.08;51.32;101786.41;5069364;28;20480;-59
2022/07/24 08:52:09;;;;;;;;;;;;;;;23.17;52.21;101795.06;5071768;28;19925;-59
2022/07/24 08:54:36;;;;;;;;;;;;;;;23.23;51.94;101797.72;5065633;28;20056;-60
2022/07/24 08:57:02;;;;;;;;;;;;;;;23.26;50.59;101793.75;5062086;28;19924;-60
2022/07/24 08:59:27;;;;;;;;;;;;;;;23.30;51.29;101788.72;5062603;28;19920;-59
2022/07/24 09:01:53;;;;;;;;;;;;;;;23.34;50.58;101792.66;5071076;28;20390;-59
2022/07/24 09:04:34;;;;;;;;;;;;;;;23.46;50.73;101799.00;5035924;28;19971;-60
2022/07/24 09:06:59;;;;;;;;;;;;;;;23.50;51.59;101789.34;5065279;28;19931;-60
2022/07/24 09:09:25;;;;;;;;;;;;;;;23.60;50.96;101793.41;5071878;28;19924;-59
2022/07/24 09:11:58;;;;;;;;;;;;;;;23.64;51.61;101794.63;5060351;28;20372;-58
2022/07/24 09:14:29;;;;;;;;;;;;;;;23.86;49.98;101794.97;5062472;28;20285;-58
2022/07/24 09:17:01;;;;;;;;;;;;;;;23.76;51.32;101784.69;5060369;28;20295;-58
2022/07/24 09:19:26;;;;;;;;;;;;;;;23.88;50.60;101789.34;5068977;28;19959;-60
2022/07/24 09:21:53;;;;;;;;;;;;;;;23.90;50.77;101776.38;5069193;28;19949;-58
2022/07/24 09:24:20;;;;;;;;;;;;;;;23.89;50.10;101780.16;5069653;28;20327;-58
2022/07/24 09:26:48;;;;;;;;;;;;;;;23.92;51.03;101775.09;5073797;28;19957;-58
2022/07/24 09:29:14;;;;;;;;;;;;;;;24.02;50.97;101777.25;5071619;28;20357;-58
2022/07/24 09:31:58;;;;;;;;;;;;;;;24.13;51.07;101769.44;5063560;28;19968;-58
2022/07/24 09:34:24;;;;;;;;;;;;;;;24.25;50.94;101764.88;5042284;28;19974;-59
2022/07/24 09:36:55;;;;;;;;;;;;;;;24.33;50.41;101762.91;5071652;28;20310;-58
2022/07/24 09:39:20;;;;;;;;;;;;;;;24.45;48.84;101759.16;5064476;28;19926;-58
2022/07/24 09:41:52;;;;;;;;;;;;;;;24.38;50.07;101765.75;5064696;28;20011;-58
2022/07/24 09:44:18;;;;;;;;;;;;;;;24.43;50.10;101769.38;5072815;28;19989;-58
2022/07/24 09:46:48;;;;;;;;;;;;;;;24.50;50.34;101758.44;5061445;28;20383;-58
2022/07/24 09:49:20;;;;;;;;;;;;;;;24.63;48.15;101770.97;5068080;28;19927;-59
2022/07/24 09:52:04;;;;;;;;;;;;;;;24.65;48.60;101766.13;5065876;28;19925;-58
2022/07/24 09:54:33;;;;;;;;;;;;;;;24.64;48.75;101752.81;5064483;28;19924;-58
2022/07/24 09:57:18;;;;;;;;;;;;;;;24.71;48.45;101756.22;5070777;28;20369;-59
2022/07/24 09:59:49;;;;;;;;;;;;;;;24.67;48.96;101747.75;5066477;28;20371;-58
2022/07/24 10:02:15;;;;;;;;;;;;;;;24.80;48.48;101743.13;5072962;28;19928;-58
2022/07/24 10:04:41;;;;;;;;;;;;;;;24.91;48.34;101741.53;5074269;28;19917;-58
2022/07/24 10:07:09;;;;;;;;;;;;;;;24.96;48.56;101757.94;5071853;28;19920;-58
2022/07/24 10:09:34;;;;;;;;;;;;;;;25.06;49.16;101744.59;5071475;28;19920;-58
2022/07/24 10:12:03;;;;;;;;;;;;;;;25.23;47.47;101749.28;5069045;28;19982;-59
2022/07/24 10:14:29;;;;;;;;;;;;;;;25.20;47.87;101738.91;5060356;28;20442;-62
2022/07/24 10:17:04;;;;;;;;;;;;;;;25.23;48.17;101738.44;5064447;28;19921;-62
2022/07/24 10:19:37;;;;;;;;;;;;;;;25.37;47.28;101744.44;5062085;28;19963;-61
2022/07/24 10:22:08;;;;;;;;;;;;;;;25.39;47.52;101731.44;5066378;28;19920;-62
2022/07/24 10:24:52;;;;;;;;;;;;;;;25.37;47.46;101731.66;5066292;28;19947;-60
2022/07/24 10:27:20;;;;;;;;;;;;;;;25.59;46.68;101732.94;5063905;28;19920;-62
2022/07/24 10:29:46;;;;;;;;;;;;;;;25.61;45.84;101720.75;5065527;28;20019;-62
2022/07/24 10:32:11;;;;;;;;;;;;;;;25.63;45.73;101721.38;5062727;28;20003;-60
2022/07/24 10:34:46;;;;;;;;;;;;;;;25.63;46.55;101721.38;5062807;28;20425;-61
2022/07/24 10:37:31;;;;;;;;;;;;;;;25.69;46.98;101716.03;5061492;28;19947;-61
2022/07/24 10:40:02;;;;;;;;;;;;;;;25.81;46.58;101711.38;5064322;28;19920;-61
2022/07/24 10:42:27;;;;;;;;;;;;;;;26.05;44.88;101712.06;5063925;28;19935;-60
2022/07/24 10:45:12;;;;;;;;;;;;;;;26.10;45.80;101713.22;5067317;28;19921;-60
2022/07/24 10:47:37;;;;;;;;;;;;;;;26.28;43.57;101709.47;5066795;28;19925;-63
2022/07/24 10:50:04;;;;;;;;;;;;;;;26.18;43.83;101710.94;5065759;28;20011;-61
2022/07/24 10:52:31;;;;;;;;;;;;;;;26.13;44.84;101708.13;5063338;28;19925;-58
2022/07/24 10:55:15;;;;;;;;;;;;;;;26.26;44.70;101706.19;5066221;28;19927;-61
2022/07/24 10:57:48;;;;;;;;;;;;;;;26.36;44.73;101708.22;5071938;28;19959;-59
2022/07/24 11:00:34;;;;;;;;;;;;;;;26.46;44.44;101700.25;5068862;28;19920;-60
2022/07/24 11:03:06;;;;;;;;;;;;;;;26.57;42.37;101703.94;5063355;28;19929;-60
2022/07/24 11:05:33;;;;;;;;;;;;;;;26.53;42.90;101700.06;5071606;28;20367;-60
2022/07/24 11:08:20;;;;;;;;;;;;;;;26.48;43.26;101700.81;5071741;28;19951;-60
2022/07/24 11:10:48;;;;;;;;;;;;;;;26.44;44.15;101692.31;5067892;28;19928;-61
2022/07/24 11:13:31;;;;;;;;;;;;;;;26.58;44.11;101692.81;5067709;28;19921;-60
2022/07/24 11:16:14;;;;;;;;;;;;;;;26.76;43.90;101699.06;5067125;28;20011;-61
2022/07/24 11:18:41;;;;;;;;;;;;;;;26.84;42.90;101690.44;5070675;28;19917;-59
2022/07/24 11:21:08;;;;;;;;;;;;;;;26.94;43.71;101695.22;5071827;28;20428;-60
2022/07/24 11:23:33;;;;;;;;;;;;;;;27.01;43.45;101694.22;5070786;28;19951;-60
2022/07/24 11:26:20;;;;;;;;;;;;;;;27.04;42.82;101685.56;5066520;28;20279;-60
2022/07/24 11:29:04;;;;;;;;;;;;;;;27.04;42.46;101691.00;5071252;28;19924;-61
2022/07/24 11:31:31;;;;;;;;;;;;;;;27.03;43.27;101686.66;5071471;28;19916;-61
2022/07/24 11:33:56;;;;;;;;;;;;;;;27.14;42.77;101682.97;5070184;28;20006;-62
2022/07/24 11:36:21;;;;;;;;;;;;;;;27.17;42.33;101682.47;5070935;28;20003;-62
2022/07/24 11:38:47;;;;;;;;;;;;;;;27.23;41.81;101675.19;5066881;28;19927;-61
2022/07/24 11:41:12;;;;;;;;;;;;;;;27.20;43.52;101671.06;5070173;28;19920;-61
2022/07/24 11:43:49;;;;;;;;;;;;;;;27.30;42.94;101666.81;5063729;28;20007;-61
2022/07/24 11:46:14;;;;;;;;;;;;;;;27.33;43.19;101669.84;5067092;28;19920;-62
2022/07/24 11:48:39;;;;;;;;;;;;;;;27.49;41.81;101673.56;5069788;28;19936;-62
2022/07/24 11:51:05;;;;;;;;;;;;;;;27.50;41.94;101675.22;5069949;28;20383;-62
2022/07/24 11:53:30;;;;;;;;;;;;;;;27.55;42.44;101671.72;5068202;28;19927;-62
2022/07/24 11:56:03;;;;;;;;;;;;;;;27.65;41.66;101658.25;5057285;28;19928;-62
2022/07/24 11:58:28;;;;;;;;;;;;;;;27.66;42.60;101662.59;5046801;28;19987;-62
2022/07/24 12:00:53;;;;;;;;;;;;;;;27.68;42.57;101656.91;5064226;28;20004;-62
2022/07/24 12:03:20;;;;;;;;;;;;;;;27.71;42.11;101653.66;5056981;28;20307;-62
2022/07/24 12:05:45;;;;;;;;;;;;;;;27.83;41.80;101650.78;5065896;28;20003;-62
2022/07/24 12:08:18;;;;;;;;;;;;;;;27.86;42.40;101654.84;5065752;28;20031;-63
2022/07/24 12:10:44;;;;;;;;;;;;;;;27.91;42.82;101642.13;5060226;28;20011;-62
2022/07/24 12:13:09;;;;;;;;;;;;;;;28.05;42.63;101639.78;5066313;28;19974;-61
2022/07/24 12:15:37;;;;;;;;;;;;;;;28.18;42.94;101629.50;5061066;28;19943;-61
2022/07/24 12:18:03;;;;;;;;;;;;;;;28.28;41.73;101636.97;5063045;28;19921;-61
2022/07/24 12:20:33;;;;;;;;;;;;;;;28.31;41.99;101629.06;5059880;28;20302;-62
2022/07/24 12:22:59;;;;;;;;;;;;;;;28.39;41.69;101621.47;5065455;28;19920;-62
2022/07/24 12:25:25;;;;;;;;;;;;;;;28.49;41.60;101635.19;5067843;28;19927;-62
2022/07/24 12:27:53;;;;;;;;;;;;;;;28.54;41.90;101621.56;5061931;28;19925;-62
2022/07/24 12:30:24;;;;;;;;;;;;;;;28.54;41.73;101621.56;5062957;28;20015;-62
2022/07/24 12:33:00;;;;;;;;;;;;;;;28.67;40.17;101614.81;5058676;28;19990;-62